createdAt,value
2022-09-23T00:01:38.372Z,3.20
2022-09-23T00:04:01.778Z,4.07
2022-09-23T00:06:25.011Z,3.90
2022-09-23T00:08:49.557Z,4.22
2022-09-23T00:13:37.744Z,3.92
2022-09-23T00:16:03.851Z,4.03
2022-09-23T00:18:27.105Z,3.60
2022-09-23T00:20:50.253Z,3.97
2022-09-23T00:23:13.471Z,3.60
2022-09-23T00:25:36.625Z,3.85
2022-09-23T00:28:01.840Z,4.50
2022-09-23T00:30:25.082Z,5.47
2022-09-23T00:32:48.422Z,3.67
2022-09-23T00:35:11.535Z,3.67
2022-09-23T00:37:34.734Z,3.70
2022-09-23T00:40:00.045Z,3.90
2022-09-23T00:42:23.753Z,3.00
2022-09-23T00:44:49.458Z,3.27
2022-09-23T00:47:14.829Z,3.75
2022-09-23T00:49:38.012Z,3.50
2022-09-23T00:52:06.525Z,3.83
2022-09-23T00:54:29.739Z,3.17
2022-09-23T00:56:52.896Z,4.50
2022-09-23T00:59:16.081Z,3.85
2022-09-23T01:01:40.886Z,3.97
2022-09-23T01:04:04.134Z,4.50
2022-09-23T01:06:29.238Z,3.63
2022-09-23T01:08:52.509Z,4.10
2022-09-23T01:11:25.369Z,3.92
2022-09-23T01:13:53.685Z,2.95
2022-09-23T01:16:19.875Z,3.42
2022-09-23T01:18:47.589Z,3.72
2022-09-23T01:21:29.073Z,5.40
2022-09-23T01:24:21.846Z,4.00
2022-09-23T01:27:07.958Z,3.92
2022-09-23T01:30:08.406Z,3.33
2022-09-23T01:32:37.708Z,2.80
2022-09-23T01:35:04.186Z,3.33
2022-09-23T01:37:29.626Z,5.13
2022-09-23T01:39:54.962Z,3.08
2022-09-23T01:42:19.007Z,2.45
2022-09-23T01:44:44.025Z,3.22
2022-09-23T01:47:11.078Z,2.58
2022-09-23T01:49:36.606Z,2.70
2022-09-23T01:52:01.298Z,2.28
2022-09-23T01:54:26.336Z,1.98
2022-09-23T01:56:52.468Z,3.13
2022-09-23T01:59:18.039Z,2.85
2022-09-23T02:01:43.174Z,2.85
2022-09-23T02:04:09.206Z,1.67
2022-09-23T02:06:35.926Z,2.10
2022-09-23T02:09:02.345Z,1.85
2022-09-23T02:11:25.625Z,2.72
2022-09-23T02:13:50.225Z,1.88
2022-09-23T02:16:15.605Z,1.88
2022-09-23T02:18:42.098Z,2.05
2022-09-23T02:21:06.959Z,3.00
2022-09-23T02:23:34.850Z,2.08
2022-09-23T02:25:59.584Z,2.75
2022-09-23T02:28:25.705Z,2.25
2022-09-23T02:30:50.162Z,2.08
2022-09-23T02:35:38.158Z,4.05
2022-09-23T02:40:31.138Z,3.83
2022-09-23T02:42:59.236Z,4.40
2022-09-23T02:45:22.375Z,2.70
2022-09-23T02:47:46.218Z,3.17
2022-09-23T02:50:10.490Z,3.50
2022-09-23T02:52:33.783Z,2.70
2022-09-23T02:54:57.190Z,2.55
2022-09-23T02:57:21.736Z,2.67
2022-09-23T03:02:23.319Z,2.60
2022-09-23T03:04:50.499Z,2.42
2022-09-23T03:07:15.420Z,2.08
2022-09-23T03:09:43.135Z,3.22
2022-09-23T03:12:11.213Z,3.03
2022-09-23T03:14:39.413Z,2.53
2022-09-23T03:17:03.843Z,2.72
2022-09-23T03:19:28.669Z,2.63
2022-09-23T03:21:56.399Z,2.72
2022-09-23T03:24:19.521Z,3.50
2022-09-23T03:26:45.225Z,2.58
2022-09-23T03:29:11.316Z,2.42
2022-09-23T03:31:35.982Z,2.17
2022-09-23T03:34:00.689Z,2.83
2022-09-23T03:39:08.054Z,2.72
2022-09-23T03:41:35.109Z,3.03
2022-09-23T03:43:58.786Z,3.03
2022-09-23T03:46:22.355Z,2.33
2022-09-23T03:48:46.914Z,2.35
2022-09-23T03:51:16.160Z,3.17
2022-09-23T03:53:39.642Z,2.35
2022-09-23T03:56:03.278Z,2.80
2022-09-23T03:58:26.556Z,3.93
2022-09-23T04:00:50.339Z,3.45
2022-09-23T04:03:13.538Z,3.63
2022-09-23T04:05:38.088Z,2.92
2022-09-23T04:08:01.438Z,3.35
2022-09-23T04:10:24.607Z,3.03
2022-09-23T04:12:47.782Z,2.65
2022-09-23T04:15:11.973Z,3.35
2022-09-23T04:17:35.139Z,3.78
2022-09-23T04:19:58.283Z,3.97
2022-09-23T04:22:22.915Z,3.35
2022-09-23T04:27:09.095Z,4.88
2022-09-23T04:29:32.259Z,4.22
2022-09-23T04:31:55.628Z,4.97
2022-09-23T04:34:19.346Z,6.10
2022-09-23T04:36:42.491Z,6.93
2022-09-23T04:39:07.219Z,6.22
2022-09-23T04:41:30.785Z,6.20
2022-09-23T04:43:53.990Z,6.70
2022-09-23T04:46:17.252Z,5.90
2022-09-23T04:48:41.450Z,6.07
2022-09-23T04:51:05.158Z,5.85
2022-09-23T04:53:29.382Z,5.85
2022-09-23T04:55:54.037Z,4.60
2022-09-23T04:58:17.548Z,4.25
2022-09-23T05:00:40.874Z,4.20
2022-09-23T05:03:04.131Z,4.43
2022-09-23T05:05:28.150Z,5.60
2022-09-23T05:07:51.700Z,5.13
2022-09-23T05:10:14.973Z,4.00
2022-09-23T05:12:39.581Z,4.80
2022-09-23T05:15:02.832Z,3.53
2022-09-23T05:17:25.974Z,3.92
2022-09-23T05:19:49.192Z,3.88
2022-09-23T05:22:12.416Z,4.15
2022-09-23T05:24:35.646Z,3.10
2022-09-23T05:26:58.812Z,2.92
2022-09-23T05:29:23.328Z,3.10
2022-09-23T05:34:09.786Z,2.40
2022-09-23T05:36:37.846Z,2.53
2022-09-23T05:39:02.275Z,2.97
2022-09-23T05:41:25.888Z,2.25
2022-09-23T05:43:49.048Z,3.03
2022-09-23T05:46:14.224Z,3.15
2022-09-23T05:48:37.493Z,2.75
2022-09-23T05:51:00.849Z,4.18
2022-09-23T05:53:23.979Z,3.30
2022-09-23T05:55:47.227Z,2.28
2022-09-23T05:58:10.377Z,3.92
2022-09-23T06:00:33.669Z,2.47
2022-09-23T06:02:58.292Z,2.92
2022-09-23T06:05:21.510Z,3.03
2022-09-23T06:07:44.903Z,3.70
2022-09-23T06:10:08.697Z,3.65
2022-09-23T06:12:31.939Z,3.63
2022-09-23T06:14:55.133Z,3.13
2022-09-23T06:17:18.385Z,3.60
2022-09-23T06:19:42.925Z,3.75
2022-09-23T06:24:31.502Z,4.03
2022-09-23T06:26:55.267Z,3.22
2022-09-23T06:29:18.841Z,4.18
2022-09-23T06:31:43.431Z,3.67
2022-09-23T06:34:11.912Z,3.95
2022-09-23T06:36:42.989Z,4.35
2022-09-23T06:39:08.013Z,3.78
2022-09-23T06:41:31.236Z,4.50
2022-09-23T06:43:54.560Z,5.13
2022-09-23T06:46:18.146Z,4.47
2022-09-23T06:48:46.039Z,4.10
2022-09-23T06:51:12.289Z,3.78
2022-09-23T06:53:37.171Z,3.72
2022-09-23T06:56:02.521Z,3.25
2022-09-23T06:58:26.842Z,4.13
2022-09-23T07:00:50.102Z,4.40
2022-09-23T07:03:13.237Z,4.50
2022-09-23T07:05:36.917Z,3.25
2022-09-23T07:08:00.319Z,3.37
2022-09-23T07:10:24.848Z,3.60
2022-09-23T07:12:48.132Z,2.78
2022-09-23T07:15:12.293Z,3.75
2022-09-23T07:17:36.090Z,2.10
2022-09-23T07:19:59.343Z,2.67
2022-09-23T07:22:22.510Z,2.70
2022-09-23T07:24:46.584Z,2.40
2022-09-23T07:27:11.272Z,1.63
2022-09-23T07:29:44.160Z,3.00
2022-09-23T07:32:13.623Z,1.73
2022-09-23T07:34:37.374Z,1.45
2022-09-23T07:37:00.579Z,1.33
2022-09-23T07:39:23.907Z,1.67
2022-09-23T07:41:47.162Z,1.15
2022-09-23T07:44:11.817Z,1.05
2022-09-23T07:46:36.225Z,1.00
2022-09-23T07:48:59.524Z,1.23
2022-09-23T07:51:26.739Z,1.25
2022-09-23T07:53:50.050Z,1.08
2022-09-23T07:56:13.602Z,0.98
2022-09-23T07:58:36.821Z,1.30
2022-09-23T08:01:04.964Z,1.00
2022-09-23T08:03:28.506Z,0.85
2022-09-23T08:05:53.369Z,1.27
2022-09-23T08:08:17.318Z,2.15
2022-09-23T08:10:40.569Z,0.93
2022-09-23T08:13:03.722Z,0.90
2022-09-23T08:15:28.409Z,1.08
2022-09-23T08:17:53.072Z,1.60
2022-09-23T08:22:59.123Z,1.33
2022-09-23T08:25:22.834Z,0.85
2022-09-23T08:27:46.213Z,1.10
2022-09-23T08:30:10.803Z,1.25
2022-09-23T08:34:58.350Z,0.90
2022-09-23T08:39:44.696Z,0.85
2022-09-23T08:42:13.779Z,0.55
2022-09-23T08:44:47.079Z,0.73
2022-09-23T08:47:12.072Z,0.95
2022-09-23T08:49:39.431Z,1.83
2022-09-23T08:52:07.657Z,0.82
2022-09-23T08:54:30.899Z,0.95
2022-09-23T08:56:55.753Z,0.50
2022-09-23T08:59:21.042Z,0.70
2022-09-23T09:01:45.682Z,0.95
2022-09-23T09:04:18.720Z,1.63
2022-09-23T09:06:52.868Z,0.93
2022-09-23T09:09:24.549Z,0.60
2022-09-23T09:11:48.766Z,1.27
2022-09-23T09:14:18.847Z,1.08
2022-09-23T09:17:00.728Z,0.88
2022-09-23T09:19:38.233Z,1.10
2022-09-23T09:22:01.418Z,0.88
2022-09-23T09:24:30.353Z,1.23
2022-09-23T09:26:53.594Z,1.10
2022-09-23T09:29:34.361Z,1.00
2022-09-23T09:31:58.859Z,1.00
2022-09-23T09:34:27.528Z,0.95
2022-09-23T09:36:52.269Z,0.93
2022-09-23T09:39:15.804Z,1.00
2022-09-23T09:41:41.954Z,1.13
2022-09-23T09:44:10.339Z,1.23
2022-09-23T09:47:01.603Z,0.80
2022-09-23T09:49:31.108Z,1.05
2022-09-23T09:52:12.558Z,1.10
2022-09-23T09:54:35.784Z,1.83
2022-09-23T09:57:00.288Z,1.02
2022-09-23T10:01:48.726Z,1.10
2022-09-23T10:04:22.450Z,0.80
2022-09-23T10:06:45.912Z,1.23
2022-09-23T10:09:14.097Z,1.38
2022-09-23T10:11:37.442Z,1.23
2022-09-23T10:14:12.680Z,0.82
2022-09-23T10:16:35.944Z,1.52
2022-09-23T10:18:59.300Z,1.38
2022-09-23T10:21:27.756Z,1.25
2022-09-23T10:23:52.599Z,0.93
2022-09-23T10:26:17.476Z,1.08
2022-09-23T10:28:43.095Z,1.83
2022-09-23T10:31:08.658Z,1.50
2022-09-23T10:33:32.595Z,1.35
2022-09-23T10:35:57.225Z,1.00
2022-09-23T10:38:20.538Z,1.50
2022-09-23T10:41:02.119Z,1.60
2022-09-23T10:43:46.261Z,1.20
2022-09-23T10:46:34.512Z,1.30
2022-09-23T10:49:08.991Z,1.38
2022-09-23T10:51:35.961Z,1.52
2022-09-23T10:54:01.517Z,1.10
2022-09-23T10:56:30.600Z,1.45
2022-09-23T10:59:21.442Z,1.02
2022-09-23T11:01:50.638Z,1.55
2022-09-23T11:04:33.116Z,1.38
2022-09-23T11:07:07.412Z,2.95
2022-09-23T11:09:34.902Z,1.23
2022-09-23T11:12:08.421Z,1.50
2022-09-23T11:14:42.216Z,1.25
2022-09-23T11:17:15.704Z,1.30
2022-09-23T11:20:10.614Z,1.20
2022-09-23T11:22:45.674Z,1.65
2022-09-23T11:27:52.096Z,1.42
2022-09-23T11:30:15.986Z,1.00
2022-09-23T11:35:28.052Z,0.77
2022-09-23T11:40:17.962Z,1.17
2022-09-23T11:42:43.726Z,1.35
2022-09-23T11:45:08.424Z,0.90
2022-09-23T11:50:03.988Z,1.40
2022-09-23T11:52:28.819Z,0.75
2022-09-23T11:54:53.077Z,1.10
2022-09-23T11:57:46.072Z,1.40
2022-09-23T12:00:15.894Z,1.30
2022-09-23T12:03:00.995Z,1.35
2022-09-23T12:05:30.063Z,1.00
2022-09-23T12:07:56.735Z,1.67
2022-09-23T12:10:19.986Z,1.95
2022-09-23T12:12:47.783Z,1.48
2022-09-23T12:15:14.856Z,2.30
2022-09-23T12:18:26.415Z,1.48
2022-09-23T12:21:07.707Z,2.08
2022-09-23T12:23:42.083Z,1.70
2022-09-23T12:26:05.933Z,1.90
2022-09-23T12:28:31.223Z,2.22
2022-09-23T12:30:55.332Z,1.67
2022-09-23T12:33:24.830Z,2.20
2022-09-23T12:35:48.089Z,1.98
2022-09-23T12:38:19.510Z,1.70
2022-09-23T12:40:44.601Z,1.20
2022-09-23T12:43:12.205Z,1.65
2022-09-23T12:45:37.797Z,1.95
2022-09-23T12:48:01.064Z,2.00
2022-09-23T12:50:53.140Z,2.40
2022-09-23T12:53:53.257Z,2.08
2022-09-23T12:56:18.926Z,1.90
2022-09-23T12:58:58.933Z,2.38
2022-09-23T13:01:22.425Z,1.98
2022-09-23T13:04:04.608Z,1.77
2022-09-23T13:06:41.313Z,1.50
2022-09-23T13:09:04.596Z,1.60
2022-09-23T13:11:30.522Z,1.65
2022-09-23T13:13:53.784Z,1.77
2022-09-23T13:16:22.359Z,1.85
2022-09-23T13:18:55.493Z,1.80
2022-09-23T13:21:20.125Z,1.67
2022-09-23T13:26:12.190Z,1.20
2022-09-23T13:28:38.334Z,1.73
2022-09-23T13:31:05.259Z,1.20
2022-09-23T13:33:31.981Z,1.50
2022-09-23T13:35:57.094Z,1.42
2022-09-23T13:38:26.209Z,1.63
2022-09-23T13:40:49.588Z,1.15
2022-09-23T13:43:18.919Z,1.67
2022-09-23T13:45:44.242Z,1.10
2022-09-23T13:48:08.601Z,1.50
2022-09-23T13:50:35.075Z,1.75
2022-09-23T13:52:59.075Z,1.15
2022-09-23T13:55:30.157Z,2.40
2022-09-23T13:57:59.175Z,1.70
2022-09-23T14:00:23.783Z,1.40
2022-09-23T14:05:12.498Z,1.50
2022-09-23T14:07:35.644Z,1.27
2022-09-23T14:09:58.883Z,1.48
2022-09-23T14:12:23.011Z,1.33
2022-09-23T14:14:46.535Z,1.23
2022-09-23T14:17:10.169Z,1.27
2022-09-23T14:19:34.811Z,1.10
2022-09-23T14:21:58.889Z,1.27
2022-09-23T14:24:24.380Z,0.80
2022-09-23T14:26:48.513Z,1.42
2022-09-23T14:29:15.159Z,1.65
2022-09-23T14:31:38.649Z,1.27
2022-09-23T14:34:01.847Z,1.20
2022-09-23T14:36:44.037Z,1.05
2022-09-23T14:39:08.392Z,1.55
2022-09-23T14:41:31.515Z,1.30
2022-09-23T14:43:57.213Z,0.88
2022-09-23T14:46:20.944Z,1.17
2022-09-23T14:48:44.232Z,1.05
2022-09-23T14:51:12.005Z,1.67
2022-09-23T14:53:41.430Z,1.05
2022-09-23T14:56:18.446Z,0.88
2022-09-23T14:58:51.696Z,1.23
2022-09-23T15:01:34.853Z,1.83
2022-09-23T15:03:58.408Z,1.52
2022-09-23T15:06:21.567Z,2.13
2022-09-23T15:08:46.240Z,1.60
2022-09-23T15:13:33.932Z,1.42
2022-09-23T15:15:57.147Z,1.52
2022-09-23T15:18:22.365Z,1.38
2022-09-23T15:20:50.567Z,1.30
2022-09-23T15:23:35.296Z,1.40
2022-09-23T15:26:00.167Z,1.08
2022-09-23T15:28:27.219Z,1.17
2022-09-23T15:30:50.416Z,1.00
2022-09-23T15:33:13.977Z,1.67
2022-09-23T15:35:37.406Z,2.50
2022-09-23T15:38:01.853Z,2.03
2022-09-23T15:42:51.614Z,1.95
2022-09-23T15:45:15.159Z,2.90
2022-09-23T15:47:38.306Z,4.38
2022-09-23T15:50:01.460Z,3.67
2022-09-23T15:52:24.791Z,2.38
2022-09-23T15:54:48.016Z,5.15
2022-09-23T15:57:11.300Z,7.70
2022-09-23T15:59:38.233Z,6.97
2022-09-23T16:02:04.283Z,7.07
2022-09-23T16:04:28.539Z,6.88
2022-09-23T16:06:51.775Z,6.10
2022-09-23T16:09:15.127Z,5.35
2022-09-23T16:11:38.325Z,7.55
2022-09-23T16:14:01.600Z,5.38
2022-09-23T16:16:27.798Z,6.40
2022-09-23T16:18:51.447Z,7.25
2022-09-23T16:21:15.109Z,8.00
2022-09-23T16:23:38.922Z,8.80
2022-09-23T16:26:03.867Z,8.68
2022-09-23T16:28:27.080Z,8.63
2022-09-23T16:30:50.237Z,7.82
2022-09-23T16:33:14.894Z,6.00
2022-09-23T16:38:01.047Z,6.25
2022-09-23T16:40:24.716Z,7.57
2022-09-23T16:42:47.959Z,5.20
2022-09-23T16:45:12.154Z,6.70
2022-09-23T16:47:35.387Z,6.22
2022-09-23T16:49:59.899Z,5.28
2022-09-23T16:54:48.067Z,5.63
2022-09-23T16:57:13.351Z,24.23
2022-09-23T16:59:50.446Z,12.95
2022-09-23T17:02:31.074Z,8.30
2022-09-23T17:04:54.577Z,8.38
2022-09-23T17:07:19.113Z,8.38
2022-09-23T17:12:07.758Z,7.90
2022-09-23T17:14:31.098Z,8.52
2022-09-23T17:16:54.342Z,8.15
2022-09-23T17:19:17.525Z,8.05
2022-09-23T17:21:40.758Z,8.85
2022-09-23T17:24:05.886Z,8.30
2022-09-23T17:26:29.200Z,8.05
2022-09-23T17:28:54.349Z,8.25
2022-09-23T17:31:17.511Z,8.98
2022-09-23T17:33:41.253Z,7.35
2022-09-23T17:36:08.058Z,8.05
2022-09-23T17:38:31.274Z,9.32
2022-09-23T17:40:56.955Z,10.18
2022-09-23T17:43:23.636Z,8.82
2022-09-23T17:45:46.786Z,9.20
2022-09-23T17:48:10.024Z,10.95
2022-09-23T17:50:33.186Z,8.10
2022-09-23T17:52:56.923Z,7.32
2022-09-23T17:55:20.085Z,7.30
2022-09-23T17:57:44.643Z,7.93
2022-09-23T18:00:10.198Z,8.73
2022-09-23T18:02:35.972Z,7.60
2022-09-23T18:04:59.130Z,7.30
2022-09-23T18:07:22.336Z,6.90
2022-09-23T18:09:45.515Z,6.82
2022-09-23T18:12:08.823Z,5.60
2022-09-23T18:14:33.419Z,5.82
2022-09-23T18:19:20.511Z,4.57
2022-09-23T18:21:45.101Z,4.20
2022-09-23T18:26:52.959Z,5.68
2022-09-23T18:29:16.139Z,7.10
2022-09-23T18:31:41.272Z,6.20
2022-09-23T18:34:06.431Z,7.63
2022-09-23T18:36:29.783Z,5.10
2022-09-23T18:38:53.123Z,6.38
2022-09-23T18:41:16.479Z,5.03
2022-09-23T18:43:43.145Z,4.72
2022-09-23T18:46:09.174Z,4.72
2022-09-23T18:48:52.107Z,5.40
2022-09-23T18:51:16.630Z,6.55
2022-09-23T18:53:40.118Z,5.07
2022-09-23T18:56:06.743Z,7.20
2022-09-23T18:58:30.179Z,5.78
2022-09-23T19:00:53.567Z,4.88
2022-09-23T19:03:17.834Z,5.40
2022-09-23T19:05:42.446Z,5.20
2022-09-23T19:08:05.909Z,5.65
2022-09-23T19:10:29.362Z,5.85
2022-09-23T19:12:52.703Z,6.35
2022-09-23T19:15:16.223Z,6.22
2022-09-23T19:17:39.695Z,6.80
2022-09-23T19:20:03.498Z,7.22
2022-09-23T19:22:30.092Z,6.68
2022-09-23T19:24:53.481Z,8.07
2022-09-23T19:27:16.899Z,8.02
2022-09-23T19:29:40.558Z,8.05
2022-09-23T19:32:04.207Z,10.25
2022-09-23T19:34:29.335Z,10.80
2022-09-23T19:36:52.964Z,10.65
2022-09-23T19:39:18.510Z,8.60
2022-09-23T19:41:41.660Z,9.05
2022-09-23T19:44:07.657Z,9.27
2022-09-23T19:46:32.483Z,8.77
2022-09-23T19:48:55.995Z,8.63
2022-09-23T19:51:19.401Z,8.90
2022-09-23T19:53:43.053Z,8.23
2022-09-23T19:56:08.089Z,9.55
2022-09-23T19:58:31.289Z,8.43
2022-09-23T20:00:54.616Z,10.13
2022-09-23T20:03:18.315Z,8.93
2022-09-23T20:05:41.606Z,10.10
2022-09-23T20:08:05.130Z,9.10
2022-09-23T20:10:28.354Z,8.20
2022-09-23T20:12:52.975Z,8.85
2022-09-23T20:17:40.118Z,8.85
2022-09-23T20:20:03.335Z,8.45
2022-09-23T20:22:32.982Z,7.75
2022-09-23T20:24:57.054Z,6.95
2022-09-23T20:27:19.189Z,8.03
2022-09-23T20:29:43.838Z,8.45
2022-09-23T20:34:33.308Z,8.02
2022-09-23T20:36:56.637Z,9.57
2022-09-23T20:39:19.873Z,9.80
2022-09-23T20:41:43.002Z,8.38
2022-09-23T20:44:07.981Z,7.85
2022-09-23T20:46:32.665Z,8.77
2022-09-23T20:48:56.729Z,8.75
2022-09-23T20:51:19.955Z,7.47
2022-09-23T20:53:43.166Z,8.93
2022-09-23T20:56:07.034Z,7.32
2022-09-23T20:58:30.901Z,8.85
2022-09-23T21:00:54.197Z,7.82
2022-09-23T21:03:18.767Z,7.22
2022-09-23T21:08:05.462Z,6.03
2022-09-23T21:10:28.772Z,6.53
2022-09-23T21:12:51.923Z,6.93
2022-09-23T21:15:15.255Z,6.80
2022-09-23T21:17:38.436Z,7.90
2022-09-23T21:20:04.647Z,10.43
2022-09-23T21:22:27.771Z,7.65
2022-09-23T21:25:26.334Z,9.15
2022-09-23T21:27:37.195Z,9.48
2022-09-23T21:30:00.494Z,8.75
2022-09-23T21:32:23.675Z,9.20
2022-09-23T21:34:46.955Z,8.32
2022-09-23T21:37:11.609Z,8.75
2022-09-23T21:41:57.885Z,8.60
2022-09-23T21:44:21.081Z,8.52
2022-09-23T21:46:44.323Z,10.52
2022-09-23T21:49:09.153Z,9.10
2022-09-23T21:51:40.493Z,8.60
2022-09-23T21:54:06.158Z,8.95
2022-09-23T21:56:29.938Z,8.88
2022-09-23T21:58:54.188Z,8.93
2022-09-23T22:01:18.285Z,8.27
2022-09-23T22:03:41.635Z,7.72
2022-09-23T22:06:06.235Z,7.85
2022-09-23T22:08:31.750Z,7.25
2022-09-23T22:10:56.275Z,7.32
2022-09-23T22:15:42.537Z,9.30
2022-09-23T22:18:06.677Z,9.13
2022-09-23T22:20:29.963Z,8.10
2022-09-23T22:22:53.196Z,8.02
2022-09-23T22:25:16.573Z,10.30
2022-09-23T22:28:01.190Z,13.30
2022-09-23T22:30:41.841Z,18.88
2022-09-23T22:33:07.045Z,17.15
2022-09-23T22:35:30.196Z,17.25
2022-09-23T22:37:53.495Z,14.13
2022-09-23T22:40:16.819Z,12.93
2022-09-23T22:42:42.361Z,11.40
2022-09-23T22:45:06.449Z,9.90
2022-09-23T22:47:29.635Z,10.60
2022-09-23T22:49:54.631Z,8.45
2022-09-23T22:52:24.103Z,8.75
2022-09-23T22:54:47.335Z,8.85
2022-09-23T22:57:10.539Z,11.40
2022-09-23T22:59:35.163Z,12.18
2022-09-23T23:04:21.976Z,12.77
2022-09-23T23:06:45.722Z,11.50
2022-09-23T23:09:10.370Z,14.40
2022-09-23T23:11:33.533Z,14.77
2022-09-23T23:13:59.613Z,17.98
2022-09-23T23:16:25.397Z,17.45
2022-09-23T23:18:48.591Z,20.23
2022-09-23T23:21:12.870Z,20.48
2022-09-23T23:23:39.783Z,19.55
2022-09-23T23:26:09.798Z,20.13
2022-09-23T23:28:33.219Z,19.40
2022-09-23T23:30:56.428Z,18.70
2022-09-23T23:33:21.124Z,16.58
2022-09-23T23:38:14.264Z,14.50
2022-09-23T23:40:38.324Z,14.57
2022-09-23T23:43:02.139Z,15.20
2022-09-23T23:45:25.365Z,14.35
2022-09-23T23:47:48.491Z,16.40
2022-09-23T23:50:13.072Z,15.95
2022-09-23T23:54:59.126Z,15.20
2022-09-23T23:57:22.390Z,14.93
2022-09-23T23:59:45.526Z,13.93
